createdAt,value
2018-07-25T00:00:42.802Z,0
2018-07-25T00:01:43.484Z,0
2018-07-25T00:02:44.162Z,0
2018-07-25T00:03:44.892Z,0
2018-07-25T00:04:45.571Z,0
2018-07-25T00:05:46.252Z,0
2018-07-25T00:06:46.929Z,0
2018-07-25T00:07:47.607Z,0
2018-07-25T00:08:48.334Z,0
2018-07-25T00:09:49.064Z,0
2018-07-25T00:12:05.245Z,0
2018-07-25T00:13:05.922Z,0
2018-07-25T00:14:06.600Z,0
2018-07-25T00:15:07.277Z,0
2018-07-25T00:16:07.954Z,0
2018-07-25T00:17:08.633Z,0
2018-07-25T00:18:09.355Z,0
2018-07-25T00:19:10.034Z,0
2018-07-25T00:20:10.710Z,0
2018-07-25T00:21:11.389Z,0
2018-07-25T00:22:12.068Z,0
2018-07-25T00:23:12.791Z,0
2018-07-25T00:24:13.470Z,0
2018-07-25T00:25:14.198Z,0
2018-07-25T00:26:14.876Z,0
2018-07-25T00:27:15.554Z,0
2018-07-25T00:28:16.232Z,0
2018-07-25T00:29:16.910Z,0
2018-07-25T00:30:17.589Z,0
2018-07-25T00:31:18.265Z,0
2018-07-25T00:32:18.943Z,0
2018-07-25T00:33:19.620Z,0
2018-07-25T00:34:20.346Z,0
2018-07-25T00:35:21.025Z,0
2018-07-25T00:36:21.785Z,0
2018-07-25T00:37:22.380Z,0
2018-07-25T00:38:23.059Z,0
2018-07-25T00:39:23.737Z,0
2018-07-25T00:40:24.414Z,0
2018-07-25T00:41:25.092Z,0
2018-07-25T00:42:25.771Z,0
2018-07-25T00:43:26.449Z,0
2018-07-25T00:44:27.129Z,0
2018-07-25T00:45:27.805Z,0
2018-07-25T00:46:28.488Z,0
2018-07-25T00:47:29.205Z,0
2018-07-25T00:48:29.888Z,0
2018-07-25T00:49:30.607Z,0
2018-07-25T00:50:31.290Z,0
2018-07-25T00:51:31.961Z,0
2018-07-25T00:52:32.637Z,0
2018-07-25T00:53:33.316Z,0
2018-07-25T00:54:33.992Z,0
2018-07-25T00:55:34.675Z,0
2018-07-25T00:56:35.348Z,0
2018-07-25T00:57:36.024Z,0
2018-07-25T00:58:36.707Z,0
2018-07-25T00:59:37.427Z,0
2018-07-25T01:00:38.105Z,0
2018-07-25T01:01:38.785Z,0
2018-07-25T01:02:39.515Z,0
2018-07-25T01:03:40.194Z,0
2018-07-25T01:04:40.916Z,0
2018-07-25T01:05:41.594Z,0
2018-07-25T01:06:42.323Z,0
2018-07-25T01:07:43.052Z,0
2018-07-25T01:08:43.735Z,0
2018-07-25T01:09:44.411Z,0
2018-07-25T01:10:45.090Z,0
2018-07-25T01:11:45.770Z,0
2018-07-25T01:12:46.493Z,0
2018-07-25T01:13:47.221Z,0
2018-07-25T01:14:47.899Z,0
2018-07-25T01:15:48.577Z,0
2018-07-25T01:16:49.255Z,0
2018-07-25T01:18:51.585Z,0
2018-07-25T01:19:52.250Z,0
2018-07-25T01:20:52.917Z,0
2018-07-25T01:21:53.582Z,0
2018-07-25T01:22:54.247Z,0
2018-07-25T01:23:54.916Z,0
2018-07-25T01:24:55.579Z,0
2018-07-25T01:25:56.246Z,0
2018-07-25T01:26:56.914Z,0
2018-07-25T01:27:57.581Z,0
2018-07-25T01:28:58.272Z,0
2018-07-25T01:29:58.956Z,0
2018-07-25T01:30:59.627Z,0
2018-07-25T01:32:00.289Z,0
2018-07-25T01:33:00.956Z,0
2018-07-25T01:34:01.624Z,0
2018-07-25T01:35:02.294Z,0
2018-07-25T01:36:02.958Z,0
2018-07-25T01:37:03.622Z,0
2018-07-25T01:38:04.289Z,0
2018-07-25T01:39:05.006Z,0
2018-07-25T01:40:05.672Z,0
2018-07-25T01:41:06.339Z,0
2018-07-25T01:42:07.009Z,0
2018-07-25T01:43:07.675Z,0
2018-07-25T01:44:08.343Z,0
2018-07-25T01:45:09.061Z,0
2018-07-25T01:46:09.729Z,0
2018-07-25T01:47:10.397Z,0
2018-07-25T01:48:11.064Z,0
2018-07-25T01:49:11.737Z,0
2018-07-25T01:50:12.397Z,0
2018-07-25T01:51:13.113Z,0
2018-07-25T01:52:13.829Z,0
2018-07-25T01:53:14.494Z,0
2018-07-25T01:54:15.210Z,0
2018-07-25T01:55:15.877Z,0
2018-07-25T01:56:16.542Z,0
2018-07-25T01:57:17.215Z,0
2018-07-25T01:58:17.925Z,0
2018-07-25T01:59:18.591Z,0
2018-07-25T02:00:19.303Z,0
2018-07-25T02:01:19.989Z,0
2018-07-25T02:02:20.636Z,0
2018-07-25T02:03:21.302Z,0
2018-07-25T02:04:21.968Z,0
2018-07-25T02:05:22.634Z,0
2018-07-25T02:07:26.175Z,0
2018-07-25T02:08:27.043Z,0
2018-07-25T02:09:27.709Z,0
2018-07-25T02:10:28.377Z,0
2018-07-25T02:11:29.041Z,0
2018-07-25T02:12:29.710Z,0
2018-07-25T02:13:30.421Z,0
2018-07-25T02:14:31.089Z,0
2018-07-25T02:15:31.797Z,0
2018-07-25T02:16:32.464Z,0
2018-07-25T02:17:33.130Z,0
2018-07-25T02:18:33.797Z,0
2018-07-25T02:19:34.539Z,0
2018-07-25T02:20:35.167Z,0
2018-07-25T02:21:35.833Z,0
2018-07-25T02:22:36.499Z,0
2018-07-25T02:23:37.165Z,0
2018-07-25T02:24:37.837Z,0
2018-07-25T02:25:38.547Z,0
2018-07-25T02:26:39.266Z,0
2018-07-25T02:27:39.975Z,0
2018-07-25T02:28:40.644Z,0
2018-07-25T02:29:41.310Z,0
2018-07-25T02:30:41.978Z,0
2018-07-25T02:31:42.646Z,0
2018-07-25T02:32:43.312Z,0
2018-07-25T02:33:44.022Z,0
2018-07-25T02:34:44.688Z,0
2018-07-25T02:35:45.353Z,0
2018-07-25T02:36:46.019Z,0
2018-07-25T02:37:46.686Z,0
2018-07-25T02:38:47.356Z,0
2018-07-25T02:39:48.020Z,0
2018-07-25T02:40:48.692Z,0
2018-07-25T02:42:19.733Z,0
2018-07-25T02:43:20.385Z,0
2018-07-25T02:44:21.107Z,0
2018-07-25T02:45:21.784Z,0
2018-07-25T02:46:22.463Z,0
2018-07-25T02:47:23.140Z,0
2018-07-25T02:48:23.819Z,0
2018-07-25T02:49:24.497Z,0
2018-07-25T02:50:25.220Z,0
2018-07-25T02:51:25.898Z,0
2018-07-25T02:52:26.575Z,0
2018-07-25T02:53:27.254Z,0
2018-07-25T02:54:27.930Z,4
2018-07-25T02:55:28.610Z,4
2018-07-25T02:56:29.287Z,0
2018-07-25T02:57:29.966Z,4
2018-07-25T02:58:30.644Z,4
2018-07-25T02:59:31.321Z,4
2018-07-25T03:00:31.998Z,4
2018-07-25T03:01:32.674Z,4
2018-07-25T03:02:33.352Z,4
2018-07-25T03:03:34.029Z,8
2018-07-25T03:04:34.707Z,8
2018-07-25T03:05:35.390Z,8
2018-07-25T03:06:36.058Z,8
2018-07-25T03:07:36.738Z,12
2018-07-25T03:08:37.416Z,16
2018-07-25T03:09:38.099Z,12
2018-07-25T03:10:38.815Z,16
2018-07-25T03:11:39.542Z,20
2018-07-25T03:12:40.259Z,20
2018-07-25T03:13:40.937Z,24
2018-07-25T03:14:41.613Z,28
2018-07-25T03:15:42.292Z,28
2018-07-25T03:16:43.012Z,32
2018-07-25T03:17:43.650Z,36
2018-07-25T03:18:44.329Z,44
2018-07-25T03:19:45.005Z,48
2018-07-25T03:20:45.684Z,56
2018-07-25T03:21:46.362Z,60
2018-07-25T03:22:47.042Z,68
2018-07-25T03:23:47.762Z,72
2018-07-25T03:24:48.445Z,80
2018-07-25T03:25:49.121Z,88
2018-07-25T03:26:50.012Z,96
2018-07-25T03:27:50.728Z,104
2018-07-25T03:28:51.408Z,116
2018-07-25T03:29:52.087Z,128
2018-07-25T03:30:52.766Z,136
2018-07-25T03:31:53.444Z,148
2018-07-25T03:32:54.124Z,160
2018-07-25T03:33:54.803Z,172
2018-07-25T03:34:55.481Z,184
2018-07-25T03:35:56.160Z,196
2018-07-25T03:36:56.840Z,212
2018-07-25T03:37:57.521Z,224
2018-07-25T03:38:58.199Z,240
2018-07-25T03:39:58.878Z,256
2018-07-25T03:40:59.559Z,272
2018-07-25T03:42:00.283Z,292
2018-07-25T03:43:01.007Z,304
2018-07-25T03:44:01.695Z,324
2018-07-25T03:45:02.374Z,344
2018-07-25T03:46:03.055Z,364
2018-07-25T03:47:03.733Z,384
2018-07-25T03:48:04.413Z,400
2018-07-25T03:49:05.094Z,424
2018-07-25T03:50:05.774Z,444
2018-07-25T03:51:06.455Z,464
2018-07-25T03:52:07.134Z,488
2018-07-25T03:53:07.816Z,512
2018-07-25T03:54:08.495Z,528
2018-07-25T03:55:09.175Z,556
2018-07-25T03:56:09.854Z,580
2018-07-25T03:57:10.535Z,600
2018-07-25T03:58:11.215Z,624
2018-07-25T03:59:11.905Z,648
2018-07-25T04:00:12.578Z,672
2018-07-25T04:01:13.255Z,696
2018-07-25T04:02:13.937Z,720
2018-07-25T04:03:14.615Z,740
2018-07-25T04:04:15.296Z,768
2018-07-25T04:05:15.975Z,792
2018-07-25T04:06:16.656Z,808
2018-07-25T04:07:17.336Z,832
2018-07-25T04:08:18.030Z,856
2018-07-25T04:09:18.731Z,880
2018-07-25T04:10:19.375Z,904
2018-07-25T04:11:20.058Z,928
2018-07-25T04:12:20.736Z,956
2018-07-25T04:13:21.415Z,980
2018-07-25T04:14:22.099Z,1004
2018-07-25T04:15:22.779Z,1028
2018-07-25T04:16:23.461Z,1048
2018-07-25T04:17:24.143Z,1068
2018-07-25T04:18:24.824Z,1092
2018-07-25T04:19:25.503Z,1108
2018-07-25T04:20:26.187Z,1128
2018-07-25T04:21:26.867Z,1148
2018-07-25T04:22:27.592Z,1172
2018-07-25T04:23:28.273Z,1188
2018-07-25T04:24:28.954Z,1208
2018-07-25T04:25:29.634Z,1232
2018-07-25T04:26:30.315Z,1252
2018-07-25T04:27:31.042Z,1276
2018-07-25T04:28:31.729Z,1296
2018-07-25T04:29:32.403Z,1312
2018-07-25T04:30:33.087Z,1340
2018-07-25T04:31:33.813Z,1368
2018-07-25T04:32:34.494Z,1392
2018-07-25T04:33:35.174Z,1412
2018-07-25T04:34:35.899Z,1436
2018-07-25T04:35:36.535Z,1456
2018-07-25T04:36:37.220Z,1480
2018-07-25T04:37:37.942Z,1500
2018-07-25T04:38:38.623Z,1524
2018-07-25T04:39:39.305Z,1548
2018-07-25T04:40:39.984Z,1576
2018-07-25T04:41:40.667Z,1604
2018-07-25T04:42:41.378Z,1640
2018-07-25T04:43:42.072Z,1668
2018-07-25T04:44:42.806Z,1704
2018-07-25T04:45:43.475Z,1740
2018-07-25T04:46:44.212Z,1780
2018-07-25T04:47:44.840Z,1816
2018-07-25T04:48:45.519Z,1852
2018-07-25T04:49:46.203Z,1880
2018-07-25T04:50:46.884Z,1908
2018-07-25T04:51:47.566Z,1924
2018-07-25T04:52:48.247Z,1944
2018-07-25T04:53:48.930Z,1960
2018-07-25T04:54:49.611Z,1980
2018-07-25T04:55:50.294Z,2000
2018-07-25T04:56:50.976Z,2020
2018-07-25T04:57:51.656Z,2044
2018-07-25T04:58:52.341Z,2076
2018-07-25T04:59:53.023Z,2108
2018-07-25T05:00:53.702Z,2128
2018-07-25T05:01:54.390Z,2148
2018-07-25T05:02:55.070Z,2164
2018-07-25T05:03:55.749Z,2180
2018-07-25T05:04:56.433Z,2192
2018-07-25T05:05:57.115Z,2204
2018-07-25T05:06:57.796Z,2216
2018-07-25T05:07:58.478Z,2228
2018-07-25T05:08:59.158Z,2236
2018-07-25T05:09:59.884Z,2240
2018-07-25T05:11:00.566Z,2248
2018-07-25T05:12:01.249Z,2260
2018-07-25T05:13:01.980Z,2272
2018-07-25T05:14:02.708Z,2284
2018-07-25T05:15:03.388Z,2292
2018-07-25T05:16:04.069Z,2304
2018-07-25T05:17:04.751Z,2312
2018-07-25T05:18:05.436Z,2308
2018-07-25T05:19:06.114Z,2312
2018-07-25T05:20:06.801Z,2316
2018-07-25T05:21:07.478Z,2324
2018-07-25T05:22:08.161Z,2332
2018-07-25T05:23:08.896Z,2340
2018-07-25T05:24:09.525Z,2352
2018-07-25T05:25:10.206Z,2364
2018-07-25T05:26:10.888Z,2376
2018-07-25T05:27:11.568Z,2392
2018-07-25T05:28:12.293Z,2404
2018-07-25T05:29:12.984Z,2416
2018-07-25T05:30:13.750Z,2424
2018-07-25T05:31:14.387Z,2424
2018-07-25T05:32:15.067Z,2424
2018-07-25T05:33:15.747Z,2424
2018-07-25T05:34:16.430Z,2428
2018-07-25T05:35:17.117Z,2432
2018-07-25T05:36:17.792Z,2444
2018-07-25T05:37:18.475Z,2456
2018-07-25T05:38:19.156Z,2472
2018-07-25T05:39:19.838Z,2488
2018-07-25T05:40:20.519Z,2504
2018-07-25T05:41:21.199Z,2524
2018-07-25T05:42:21.881Z,2540
2018-07-25T05:43:22.564Z,2564
2018-07-25T05:44:23.246Z,2596
2018-07-25T05:45:23.929Z,2640
2018-07-25T05:46:24.655Z,2688
2018-07-25T05:47:25.336Z,2744
2018-07-25T05:48:26.024Z,2788
2018-07-25T05:49:26.707Z,2816
2018-07-25T05:50:27.417Z,2836
2018-07-25T05:51:28.097Z,2852
2018-07-25T05:52:28.779Z,2868
2018-07-25T05:53:29.462Z,2880
2018-07-25T05:54:30.144Z,2896
2018-07-25T05:55:30.871Z,2916
2018-07-25T05:56:31.553Z,2940
2018-07-25T05:57:32.234Z,2964
2018-07-25T05:58:32.916Z,2984
2018-07-25T05:59:33.598Z,3004
2018-07-25T06:00:34.279Z,3016
2018-07-25T06:01:34.963Z,3028
2018-07-25T06:02:35.644Z,3032
2018-07-25T06:03:36.328Z,3044
2018-07-25T06:04:37.010Z,3056
2018-07-25T06:05:37.690Z,3068
2018-07-25T06:06:38.423Z,3088
2018-07-25T06:07:39.106Z,3104
2018-07-25T06:08:39.798Z,3124
2018-07-25T06:09:40.513Z,3144
2018-07-25T06:10:41.234Z,3164
2018-07-25T06:11:41.916Z,3180
2018-07-25T06:12:42.649Z,3196
2018-07-25T06:13:43.282Z,3216
2018-07-25T06:14:44.007Z,3236
2018-07-25T06:15:44.693Z,3252
2018-07-25T06:16:45.372Z,3288
2018-07-25T06:17:46.055Z,3328
2018-07-25T06:18:46.739Z,3372
2018-07-25T06:19:47.422Z,3428
2018-07-25T06:20:48.105Z,3484
2018-07-25T06:21:48.789Z,3540
2018-07-25T06:22:49.472Z,3592
2018-07-25T06:23:50.154Z,3640
2018-07-25T06:24:50.838Z,3688
2018-07-25T06:25:51.559Z,3748
2018-07-25T06:26:52.203Z,3820
2018-07-25T06:27:52.887Z,4460
2018-07-25T06:28:53.580Z,24608
2018-07-25T06:29:54.298Z,61760
2018-07-25T06:30:54.984Z,91008
2018-07-25T06:31:55.670Z,96896
2018-07-25T06:32:56.354Z,97984
2018-07-25T06:33:57.046Z,95328
2018-07-25T06:34:57.771Z,89888
2018-07-25T06:35:58.459Z,88192
2018-07-25T06:36:59.187Z,81888
2018-07-25T06:37:59.927Z,82688
2018-07-25T06:39:00.559Z,89312
2018-07-25T06:40:01.248Z,89760
2018-07-25T06:41:01.934Z,89248
2018-07-25T06:42:02.665Z,92224
2018-07-25T06:43:03.353Z,86880
2018-07-25T06:44:04.043Z,81856
2018-07-25T06:45:04.731Z,83232
2018-07-25T06:46:05.420Z,82496
2018-07-25T06:47:06.109Z,82528
2018-07-25T06:48:06.798Z,86560
2018-07-25T06:49:07.489Z,89056
2018-07-25T06:50:08.179Z,86240
2018-07-25T06:51:08.874Z,85376
2018-07-25T06:52:09.566Z,88864
2018-07-25T06:53:10.258Z,88480
2018-07-25T06:54:10.948Z,89440
2018-07-25T06:55:11.658Z,92224
2018-07-25T06:56:12.332Z,83392
2018-07-25T06:57:13.030Z,85888
2018-07-25T06:58:13.761Z,90592
2018-07-25T06:59:14.452Z,90464
2018-07-25T07:00:15.143Z,90048
2018-07-25T07:01:15.835Z,80512
2018-07-25T07:02:16.531Z,83264
2018-07-25T07:03:17.221Z,87520
2018-07-25T07:04:17.912Z,86528
2018-07-25T07:05:18.605Z,87008
2018-07-25T07:06:19.300Z,84864
2018-07-25T07:07:19.989Z,81760
2018-07-25T07:08:20.702Z,82144
2018-07-25T07:09:21.420Z,80640
2018-07-25T07:10:22.113Z,81920
2018-07-25T07:11:22.809Z,80512
2018-07-25T07:12:23.498Z,83104
2018-07-25T07:13:24.192Z,86080
2018-07-25T07:14:24.885Z,84288
2018-07-25T07:15:25.579Z,82368
2018-07-25T07:16:26.270Z,74336
2018-07-25T07:17:26.984Z,70464
2018-07-25T07:18:27.658Z,73728
2018-07-25T07:19:28.351Z,76160
2018-07-25T07:20:29.043Z,81056
2018-07-25T07:21:29.737Z,82560
2018-07-25T07:22:30.432Z,82720
2018-07-25T07:23:31.126Z,83968
2018-07-25T07:24:31.819Z,82720
2018-07-25T07:25:32.512Z,81920
2018-07-25T07:26:33.206Z,84672
2018-07-25T07:27:33.899Z,83360
2018-07-25T07:28:34.591Z,79008
2018-07-25T07:29:35.285Z,76320
2018-07-25T07:30:35.979Z,78560
2018-07-25T07:31:36.674Z,80992
2018-07-25T07:32:37.410Z,77760
2018-07-25T07:33:38.107Z,75296
2018-07-25T07:34:38.796Z,78336
2018-07-25T07:35:39.490Z,79520
2018-07-25T07:36:40.183Z,80352
2018-07-25T07:37:40.911Z,78048
2018-07-25T07:38:41.568Z,75264
2018-07-25T07:39:42.264Z,75776
2018-07-25T07:40:43.002Z,75328
2018-07-25T07:41:43.697Z,75904
2018-07-25T07:42:44.434Z,77376
2018-07-25T07:43:45.129Z,73696
2018-07-25T07:44:45.822Z,73696
2018-07-25T07:45:46.517Z,74816
2018-07-25T07:46:47.209Z,74240
2018-07-25T07:47:48.012Z,73312
2018-07-25T07:48:48.595Z,70272
2018-07-25T07:49:49.289Z,69440
2018-07-25T07:50:49.982Z,69408
2018-07-25T07:51:50.673Z,69536
2018-07-25T07:52:51.367Z,72928
2018-07-25T07:53:52.064Z,74080
2018-07-25T07:54:52.753Z,69632
2018-07-25T07:55:53.446Z,69024
2018-07-25T07:56:54.145Z,66592
2018-07-25T07:57:54.832Z,64864
2018-07-25T07:58:55.523Z,61600
2018-07-25T07:59:56.216Z,52192
2018-07-25T08:00:56.910Z,51264
2018-07-25T08:01:57.602Z,54016
2018-07-25T08:02:58.293Z,48960
2018-07-25T08:03:58.988Z,45152
2018-07-25T08:04:59.704Z,44448
2018-07-25T08:06:00.410Z,46496
2018-07-25T08:07:01.105Z,46496
2018-07-25T08:08:01.797Z,45312
2018-07-25T08:09:02.491Z,32192
2018-07-25T08:10:03.183Z,16368
2018-07-25T08:11:03.876Z,11608
2018-07-25T08:12:04.568Z,10712
2018-07-25T08:13:05.261Z,10140
2018-07-25T08:14:05.953Z,9652
2018-07-25T08:15:06.642Z,9208
2018-07-25T08:16:07.333Z,8796
2018-07-25T08:17:08.026Z,8408
2018-07-25T08:18:08.717Z,8064
2018-07-25T08:19:09.407Z,7760
2018-07-25T08:20:10.099Z,7480
2018-07-25T08:21:10.879Z,7300
2018-07-25T08:22:11.481Z,7132
2018-07-25T08:23:12.172Z,7000
2018-07-25T08:24:12.863Z,6880
2018-07-25T08:25:13.556Z,6788
2018-07-25T08:26:14.266Z,6736
2018-07-25T08:27:14.940Z,6696
2018-07-25T08:28:15.631Z,6628
2018-07-25T08:29:16.322Z,6572
2018-07-25T08:30:17.014Z,6520
2018-07-25T08:31:17.709Z,6464
2018-07-25T08:32:18.442Z,6404
2018-07-25T08:33:19.135Z,6320
2018-07-25T08:34:19.827Z,6236
2018-07-25T08:35:20.518Z,6176
2018-07-25T08:36:21.211Z,6128
2018-07-25T08:37:21.947Z,6048
2018-07-25T08:38:22.638Z,5992
2018-07-25T08:39:23.330Z,5944
2018-07-25T08:40:24.024Z,5924
2018-07-25T08:41:24.760Z,5896
2018-07-25T08:42:25.449Z,5896
2018-07-25T08:43:26.143Z,5892
2018-07-25T08:44:26.879Z,5936
2018-07-25T08:45:27.570Z,5984
2018-07-25T08:46:28.265Z,5968
2018-07-25T08:47:28.996Z,6004
2018-07-25T08:48:29.689Z,6068
2018-07-25T08:49:30.380Z,6052
2018-07-25T08:50:31.074Z,6032
2018-07-25T08:51:31.765Z,6004
2018-07-25T08:52:32.559Z,5984
2018-07-25T08:53:33.185Z,5960
2018-07-25T08:54:33.876Z,5940
2018-07-25T08:55:34.584Z,5936
2018-07-25T08:56:35.306Z,5924
2018-07-25T08:57:35.996Z,6256
2018-07-25T08:58:36.691Z,6400
2018-07-25T08:59:37.383Z,6352
2018-07-25T09:00:38.118Z,6264
2018-07-25T09:01:38.761Z,6128
2018-07-25T09:02:39.452Z,6052
2018-07-25T09:03:40.143Z,5964
2018-07-25T09:04:40.835Z,6256
2018-07-25T09:05:41.527Z,7904
2018-07-25T09:06:42.229Z,9716
2018-07-25T09:07:43.043Z,16532
2018-07-25T09:08:43.652Z,24736
2018-07-25T09:09:44.370Z,21408
2018-07-25T09:10:45.037Z,12760
2018-07-25T09:11:45.731Z,6420
2018-07-25T09:12:46.469Z,5136
2018-07-25T09:13:47.110Z,5008
2018-07-25T09:14:47.802Z,4944
2018-07-25T09:15:48.495Z,4884
2018-07-25T09:16:49.238Z,4864
2018-07-25T09:17:49.916Z,4844
2018-07-25T09:18:50.609Z,4692
2018-07-25T09:19:51.327Z,4652
2018-07-25T09:20:51.995Z,4608
2018-07-25T09:21:52.684Z,4584
2018-07-25T09:22:53.375Z,4556
2018-07-25T09:23:54.069Z,4496
2018-07-25T09:24:54.759Z,4524
2018-07-25T09:25:55.450Z,4508
2018-07-25T09:26:56.144Z,4488
2018-07-25T09:27:56.836Z,4464
2018-07-25T09:28:57.530Z,4412
2018-07-25T09:29:58.266Z,4340
2018-07-25T09:30:58.956Z,4284
2018-07-25T09:31:59.649Z,4240
2018-07-25T09:33:00.339Z,4216
2018-07-25T09:34:01.088Z,4208
2018-07-25T09:35:01.725Z,4244
2018-07-25T09:36:02.417Z,4224
2018-07-25T09:37:03.111Z,4296
2018-07-25T09:38:03.801Z,4380
2018-07-25T09:39:04.514Z,4380
2018-07-25T09:40:05.185Z,4380
2018-07-25T09:41:05.950Z,4584
2018-07-25T09:42:06.568Z,4828
2018-07-25T09:43:07.258Z,5108
2018-07-25T09:44:07.953Z,5488
2018-07-25T09:45:08.644Z,5644
2018-07-25T09:46:09.333Z,5712
2018-07-25T09:47:10.132Z,5516
2018-07-25T09:48:10.717Z,5316
2018-07-25T09:49:11.408Z,5016
2018-07-25T09:50:12.105Z,4736
2018-07-25T09:51:12.791Z,4532
2018-07-25T09:52:13.481Z,4396
2018-07-25T09:53:14.236Z,4292
2018-07-25T09:54:14.869Z,4216
2018-07-25T09:55:15.561Z,4124
2018-07-25T09:56:16.292Z,4096
2018-07-25T09:57:16.983Z,4084
2018-07-25T09:58:17.675Z,4084
2018-07-25T09:59:18.392Z,4132
2018-07-25T10:00:19.097Z,4220
2018-07-25T10:01:19.794Z,4284
2018-07-25T10:02:20.523Z,4328
2018-07-25T10:03:21.216Z,4328
2018-07-25T10:04:21.907Z,4448
2018-07-25T10:05:22.603Z,4808
2018-07-25T10:06:23.363Z,4928
2018-07-25T10:07:24.130Z,4880
2018-07-25T10:08:24.717Z,4748
2018-07-25T10:09:25.428Z,4460
2018-07-25T10:10:26.103Z,4100
2018-07-25T10:11:26.794Z,3060
2018-07-25T10:12:27.528Z,4104
2018-07-25T10:13:28.219Z,4216
2018-07-25T10:14:28.911Z,4472
2018-07-25T10:15:29.626Z,4676
2018-07-25T10:16:30.296Z,4800
2018-07-25T10:17:31.015Z,5196
2018-07-25T10:18:31.682Z,5412
2018-07-25T10:19:32.375Z,5632
2018-07-25T10:20:33.168Z,5880
2018-07-25T10:21:33.835Z,6364
2018-07-25T10:22:34.526Z,6312
2018-07-25T10:23:35.217Z,6420
2018-07-25T10:24:35.921Z,6336
2018-07-25T10:25:36.602Z,6040
2018-07-25T10:26:37.336Z,5852
2018-07-25T10:27:38.045Z,5668
2018-07-25T10:28:38.718Z,5196
2018-07-25T10:29:39.428Z,4808
2018-07-25T10:30:40.101Z,4576
2018-07-25T10:31:40.792Z,5044
2018-07-25T10:32:41.530Z,5236
2018-07-25T10:33:42.219Z,5276
2018-07-25T10:34:42.976Z,5372
2018-07-25T10:35:43.676Z,4812
2018-07-25T10:36:44.339Z,4960
2018-07-25T10:37:45.030Z,5640
2018-07-25T10:38:45.720Z,5340
2018-07-25T10:39:46.439Z,5300
2018-07-25T10:40:47.102Z,5496
2018-07-25T10:41:47.794Z,5516
2018-07-25T10:42:48.484Z,5648
2018-07-25T10:43:49.176Z,6044
2018-07-25T10:44:49.867Z,6432
2018-07-25T10:45:50.593Z,5876
2018-07-25T10:46:51.249Z,6256
2018-07-25T10:47:51.940Z,7232
2018-07-25T10:48:52.701Z,6924
2018-07-25T10:49:53.323Z,6884
2018-07-25T10:50:54.015Z,6396
2018-07-25T10:51:54.709Z,5584
2018-07-25T10:52:55.395Z,3988
2018-07-25T10:53:56.087Z,4856
2018-07-25T10:54:56.781Z,4696
2018-07-25T10:55:57.596Z,4604
2018-07-25T10:56:58.240Z,4636
2018-07-25T10:57:58.931Z,4868
2018-07-25T10:58:59.623Z,5120
2018-07-25T11:00:00.314Z,5276
2018-07-25T11:01:01.006Z,5340
2018-07-25T11:02:01.750Z,5284
2018-07-25T11:03:02.391Z,5364
2018-07-25T11:04:03.126Z,5200
2018-07-25T11:05:03.770Z,4940
2018-07-25T11:06:04.462Z,4756
2018-07-25T11:07:05.154Z,4736
2018-07-25T11:08:05.842Z,4160
2018-07-25T11:09:06.578Z,4572
2018-07-25T11:10:07.262Z,4756
2018-07-25T11:11:07.953Z,6220
2018-07-25T11:12:08.645Z,6348
2018-07-25T11:13:09.334Z,6116
2018-07-25T11:14:10.027Z,5876
2018-07-25T11:15:10.718Z,5280
2018-07-25T11:16:11.416Z,4136
2018-07-25T11:17:12.106Z,3412
2018-07-25T11:18:12.796Z,3804
2018-07-25T11:19:13.488Z,3952
2018-07-25T11:20:14.180Z,4192
2018-07-25T11:21:14.869Z,5776
2018-07-25T11:22:15.561Z,4576
2018-07-25T11:23:16.254Z,4832
2018-07-25T11:24:16.949Z,6460
2018-07-25T11:25:17.719Z,6616
2018-07-25T11:26:18.407Z,6448
2018-07-25T11:27:19.097Z,6460
2018-07-25T11:28:19.789Z,6592
2018-07-25T11:29:20.481Z,7092
2018-07-25T11:30:21.170Z,7404
2018-07-25T11:31:21.862Z,7168
2018-07-25T11:32:22.559Z,6880
2018-07-25T11:33:23.242Z,5404
2018-07-25T11:34:23.935Z,6072
2018-07-25T11:35:24.668Z,5168
2018-07-25T11:36:25.359Z,5296
2018-07-25T11:37:26.051Z,5984
2018-07-25T11:38:26.742Z,6112
2018-07-25T11:39:27.449Z,6132
2018-07-25T11:40:28.166Z,6288
2018-07-25T11:41:28.857Z,6356
2018-07-25T11:42:29.548Z,6220
2018-07-25T11:43:30.242Z,5956
2018-07-25T11:44:30.928Z,5436
2018-07-25T11:45:31.618Z,5128
2018-07-25T11:46:32.307Z,5032
2018-07-25T11:47:33.039Z,4920
2018-07-25T11:48:33.733Z,3876
2018-07-25T11:49:34.468Z,5396
2018-07-25T11:50:35.162Z,5304
2018-07-25T11:51:35.848Z,5268
2018-07-25T11:52:36.540Z,5524
2018-07-25T11:53:37.228Z,5840
2018-07-25T11:54:37.920Z,6196
2018-07-25T11:55:38.641Z,6548
2018-07-25T11:56:39.298Z,7216
2018-07-25T11:57:39.989Z,7696
2018-07-25T11:58:40.679Z,8088
2018-07-25T11:59:41.368Z,8344
2018-07-25T12:00:42.061Z,8144
2018-07-25T12:01:42.773Z,8076
2018-07-25T12:02:43.440Z,8028
2018-07-25T12:03:44.132Z,7824
2018-07-25T12:04:44.822Z,7644
2018-07-25T12:05:45.535Z,7372
2018-07-25T12:06:46.204Z,5492
2018-07-25T12:07:46.895Z,5024
2018-07-25T12:08:47.633Z,4584
2018-07-25T12:09:48.323Z,4344
2018-07-25T12:10:49.013Z,4504
2018-07-25T12:11:49.703Z,4328
2018-07-25T12:12:50.409Z,4200
2018-07-25T12:13:51.083Z,4200
2018-07-25T12:14:51.773Z,5448
2018-07-25T12:15:52.464Z,4396
2018-07-25T12:16:53.154Z,4896
2018-07-25T12:17:53.844Z,5780
2018-07-25T12:18:54.537Z,6260
2018-07-25T12:19:55.225Z,6664
2018-07-25T12:20:55.919Z,6652
2018-07-25T12:21:56.608Z,6688
2018-07-25T12:22:57.297Z,6584
2018-07-25T12:23:57.987Z,6568
2018-07-25T12:24:58.706Z,6732
2018-07-25T12:25:59.405Z,5016
2018-07-25T12:27:00.097Z,5220
2018-07-25T12:28:00.786Z,6652
2018-07-25T12:29:01.476Z,6316
2018-07-25T12:30:02.166Z,4512
2018-07-25T12:31:02.857Z,6036
2018-07-25T12:32:03.556Z,6264
2018-07-25T12:33:04.238Z,6596
2018-07-25T12:34:04.930Z,6860
2018-07-25T12:35:05.638Z,6908
2018-07-25T12:36:06.346Z,7068
2018-07-25T12:37:07.038Z,7104
2018-07-25T12:38:07.727Z,7304
2018-07-25T12:39:08.415Z,7440
2018-07-25T12:40:09.107Z,7820
2018-07-25T12:41:09.799Z,7492
2018-07-25T12:42:10.487Z,7876
2018-07-25T12:43:11.181Z,6544
2018-07-25T12:44:11.868Z,7988
2018-07-25T12:45:12.557Z,8012
2018-07-25T12:46:13.251Z,8116
2018-07-25T12:47:13.942Z,7928
2018-07-25T12:48:14.633Z,7452
2018-07-25T12:49:15.324Z,5556
2018-07-25T12:50:16.016Z,5288
2018-07-25T12:51:16.704Z,6324
2018-07-25T12:52:17.397Z,6144
2018-07-25T12:53:18.187Z,5492
2018-07-25T12:54:18.778Z,5460
2018-07-25T12:55:19.468Z,5496
2018-07-25T12:56:20.159Z,4544
2018-07-25T12:57:20.848Z,3740
2018-07-25T12:58:21.540Z,4652
2018-07-25T12:59:22.230Z,6096
2018-07-25T13:00:22.964Z,6084
2018-07-25T13:01:23.654Z,6192
2018-07-25T13:02:24.345Z,6448
2018-07-25T13:03:25.036Z,6768
2018-07-25T13:04:25.725Z,7068
2018-07-25T13:05:26.420Z,7236
2018-07-25T13:06:27.150Z,7272
2018-07-25T13:07:27.840Z,7288
2018-07-25T13:08:28.532Z,7504
2018-07-25T13:09:29.223Z,7996
2018-07-25T13:10:29.958Z,8256
2018-07-25T13:11:30.602Z,6872
2018-07-25T13:12:31.338Z,8004
2018-07-25T13:13:32.078Z,8300
2018-07-25T13:14:32.767Z,8388
2018-07-25T13:15:33.458Z,8484
2018-07-25T13:16:34.154Z,8748
2018-07-25T13:17:34.877Z,9156
2018-07-25T13:18:35.570Z,9324
2018-07-25T13:19:36.260Z,9048
2018-07-25T13:20:36.949Z,8500
2018-07-25T13:21:37.647Z,5572
2018-07-25T13:22:38.421Z,4920
2018-07-25T13:23:39.097Z,4540
2018-07-25T13:24:39.798Z,6804
2018-07-25T13:25:40.488Z,5048
2018-07-25T13:26:41.177Z,6356
2018-07-25T13:27:41.871Z,6448
2018-07-25T13:28:42.582Z,6148
2018-07-25T13:29:43.249Z,5960
2018-07-25T13:30:43.940Z,5764
2018-07-25T13:31:44.632Z,5520
2018-07-25T13:32:45.320Z,5348
2018-07-25T13:33:46.016Z,5260
2018-07-25T13:34:46.706Z,3336
2018-07-25T13:35:47.442Z,3392
2018-07-25T13:36:48.133Z,5996
2018-07-25T13:37:48.824Z,5816
2018-07-25T13:38:49.515Z,5592
2018-07-25T13:39:50.208Z,4184
2018-07-25T13:45:22.078Z,5976
2018-07-25T13:46:22.822Z,7352
2018-07-25T13:47:23.401Z,8248
2018-07-25T13:48:24.091Z,9084
2018-07-25T13:49:24.780Z,9656
2018-07-25T13:50:25.500Z,9520
2018-07-25T13:51:26.206Z,9044
2018-07-25T13:52:26.898Z,8832
2018-07-25T13:53:27.587Z,8784